sensor_id;sensor_type;location;lat;lon;timestamp;pressure;altitude;pressure_sealevel;temperature;humidity
37238;BME280;23129;49.662;8.448;2022-08-25T00:00:18;100700.59;;;22.87;42.79
37238;BME280;23129;49.662;8.448;2022-08-25T00:02:47;100696.56;;;22.81;43.13
37238;BME280;23129;49.662;8.448;2022-08-25T00:05:28;100696.19;;;22.74;43.21
37238;BME280;23129;49.662;8.448;2022-08-25T00:08:02;100695.66;;;22.69;43.53
37238;BME280;23129;49.662;8.448;2022-08-25T00:10:34;100703.28;;;22.63;44.08
37238;BME280;23129;49.662;8.448;2022-08-25T00:13:04;100702.91;;;22.56;44.21
37238;BME280;23129;49.662;8.448;2022-08-25T00:15:33;100695.34;;;22.50;44.55
37238;BME280;23129;49.662;8.448;2022-08-25T00:18:02;100710.84;;;22.45;44.81
37238;BME280;23129;49.662;8.448;2022-08-25T00:20:40;100702.31;;;22.40;44.90
37238;BME280;23129;49.662;8.448;2022-08-25T00:23:16;100710.31;;;22.40;45.13
37238;BME280;23129;49.662;8.448;2022-08-25T00:25:45;100712.16;;;22.39;45.55
37238;BME280;23129;49.662;8.448;2022-08-25T00:28:14;100702.53;;;22.37;45.76
37238;BME280;23129;49.662;8.448;2022-08-25T00:30:43;100711.53;;;22.36;45.60
37238;BME280;23129;49.662;8.448;2022-08-25T00:33:12;100708.09;;;22.33;45.84
37238;BME280;23129;49.662;8.448;2022-08-25T00:35:41;100710.03;;;22.31;45.90
37238;BME280;23129;49.662;8.448;2022-08-25T00:38:10;100701.28;;;22.29;46.08
37238;BME280;23129;49.662;8.448;2022-08-25T00:40:41;100701.50;;;22.26;46.21
37238;BME280;23129;49.662;8.448;2022-08-25T00:43:11;100701.72;;;22.23;46.55
37238;BME280;23129;49.662;8.448;2022-08-25T00:45:39;100702.91;;;22.19;46.99
37238;BME280;23129;49.662;8.448;2022-08-25T00:48:08;100696.06;;;22.15;46.98
37238;BME280;23129;49.662;8.448;2022-08-25T00:50:36;100698.09;;;22.11;47.17
37238;BME280;23129;49.662;8.448;2022-08-25T00:53:06;100697.47;;;22.08;47.37
37238;BME280;23129;49.662;8.448;2022-08-25T00:55:37;100704.09;;;22.02;47.42
37238;BME280;23129;49.662;8.448;2022-08-25T00:58:14;100707.00;;;21.99;47.52
37238;BME280;23129;49.662;8.448;2022-08-25T01:00:48;100701.97;;;21.95;47.71
37238;BME280;23129;49.662;8.448;2022-08-25T01:03:18;100702.19;;;21.92;48.37
37238;BME280;23129;49.662;8.448;2022-08-25T01:05:52;100700.72;;;21.87;48.33
37238;BME280;23129;49.662;8.448;2022-08-25T01:08:23;100700.94;;;21.84;48.48
37238;BME280;23129;49.662;8.448;2022-08-25T01:10:57;100707.34;;;21.82;48.54
37238;BME280;23129;49.662;8.448;2022-08-25T01:13:33;100703.06;;;21.79;48.28
37238;BME280;23129;49.662;8.448;2022-08-25T01:16:04;100703.06;;;21.79;48.67
37238;BME280;23129;49.662;8.448;2022-08-25T01:18:45;100708.63;;;21.76;48.70
37238;BME280;23129;49.662;8.448;2022-08-25T01:21:19;100708.63;;;21.76;48.78
37238;BME280;23129;49.662;8.448;2022-08-25T01:23:49;100716.63;;;21.76;49.14
37238;BME280;23129;49.662;8.448;2022-08-25T01:26:21;100710.53;;;21.74;49.31
37238;BME280;23129;49.662;8.448;2022-08-25T01:29:00;100716.09;;;21.71;49.32
37238;BME280;23129;49.662;8.448;2022-08-25T01:31:47;100714.59;;;21.67;49.51
37238;BME280;23129;49.662;8.448;2022-08-25T01:34:18;100712.03;;;21.65;49.66
37238;BME280;23129;49.662;8.448;2022-08-25T01:36:48;100717.72;;;21.61;49.93
37238;BME280;23129;49.662;8.448;2022-08-25T01:39:17;100707.25;;;21.58;50.24
37238;BME280;23129;49.662;8.448;2022-08-25T01:42:06;100709.38;;;21.53;49.97
37238;BME280;23129;49.662;8.448;2022-08-25T01:44:40;100712.25;;;21.50;50.50
37238;BME280;23129;49.662;8.448;2022-08-25T01:47:10;100710.78;;;21.46;50.88
37238;BME280;23129;49.662;8.448;2022-08-25T01:49:39;100712.69;;;21.43;50.95
37238;BME280;23129;49.662;8.448;2022-08-25T01:52:15;100721.88;;;21.39;51.01
37238;BME280;23129;49.662;8.448;2022-08-25T01:54:47;100722.09;;;21.36;51.26
37238;BME280;23129;49.662;8.448;2022-08-25T01:57:16;100715.19;;;21.32;51.54
37238;BME280;23129;49.662;8.448;2022-08-25T01:59:45;100716.38;;;21.28;51.57
37238;BME280;23129;49.662;8.448;2022-08-25T02:02:14;100722.88;;;21.24;51.85
37238;BME280;23129;49.662;8.448;2022-08-25T02:04:44;100713.28;;;21.22;52.01
37238;BME280;23129;49.662;8.448;2022-08-25T02:07:18;100717.22;;;21.16;52.15
37238;BME280;23129;49.662;8.448;2022-08-25T02:09:47;100720.94;;;21.13;52.29
37238;BME280;23129;49.662;8.448;2022-08-25T02:12:15;100723.91;;;21.09;52.50
37238;BME280;23129;49.662;8.448;2022-08-25T02:14:45;100716.09;;;21.06;52.70
37238;BME280;23129;49.662;8.448;2022-08-25T02:17:15;100715.38;;;21.04;52.84
37238;BME280;23129;49.662;8.448;2022-08-25T02:19:43;100714.72;;;21.00;52.90
37238;BME280;23129;49.662;8.448;2022-08-25T02:22:11;100706.81;;;20.98;52.97
37238;BME280;23129;49.662;8.448;2022-08-25T02:24:41;100710.44;;;20.97;53.10
37238;BME280;23129;49.662;8.448;2022-08-25T02:27:10;100712.34;;;20.95;53.28
37238;BME280;23129;49.662;8.448;2022-08-25T02:29:38;100703.59;;;20.93;53.26
37238;BME280;23129;49.662;8.448;2022-08-25T02:32:07;100700.94;;;20.93;53.15
37238;BME280;23129;49.662;8.448;2022-08-25T02:34:36;100710.88;;;20.91;53.45
37238;BME280;23129;49.662;8.448;2022-08-25T02:37:07;100715.44;;;20.89;53.50
37238;BME280;23129;49.662;8.448;2022-08-25T02:39:35;100707.63;;;20.86;53.52
37238;BME280;23129;49.662;8.448;2022-08-25T02:42:05;100707.72;;;20.85;53.63
37238;BME280;23129;49.662;8.448;2022-08-25T02:44:34;100708.81;;;20.82;53.61
37238;BME280;23129;49.662;8.448;2022-08-25T02:47:03;100705.19;;;20.83;53.72
37238;BME280;23129;49.662;8.448;2022-08-25T02:49:32;100709.75;;;20.81;53.87
37238;BME280;23129;49.662;8.448;2022-08-25T02:52:01;100705.38;;;20.80;53.99
37238;BME280;23129;49.662;8.448;2022-08-25T02:54:31;100707.28;;;20.78;54.12
37238;BME280;23129;49.662;8.448;2022-08-25T02:56:59;100701.22;;;20.76;53.94
37238;BME280;23129;49.662;8.448;2022-08-25T02:59:29;100694.38;;;20.72;54.13
37238;BME280;23129;49.662;8.448;2022-08-25T03:01:58;100695.41;;;20.69;54.24
37238;BME280;23129;49.662;8.448;2022-08-25T03:04:26;100696.47;;;20.67;54.20
37238;BME280;23129;49.662;8.448;2022-08-25T03:06:55;100701.06;;;20.65;54.33
37238;BME280;23129;49.662;8.448;2022-08-25T03:09:25;100702.13;;;20.62;54.66
37238;BME280;23129;49.662;8.448;2022-08-25T03:11:53;100705.84;;;20.60;54.55
37238;BME280;23129;49.662;8.448;2022-08-25T03:14:22;100702.53;;;20.56;54.73
37238;BME280;23129;49.662;8.448;2022-08-25T03:16:52;100692.91;;;20.54;54.71
37238;BME280;23129;49.662;8.448;2022-08-25T03:19:20;100702.78;;;20.51;54.77
37238;BME280;23129;49.662;8.448;2022-08-25T03:21:50;100703.75;;;20.50;54.73
37238;BME280;23129;49.662;8.448;2022-08-25T03:24:22;100697.84;;;20.45;54.94
37238;BME280;23129;49.662;8.448;2022-08-25T03:26:51;100699.78;;;20.43;54.83
37238;BME280;23129;49.662;8.448;2022-08-25T03:29:22;100698.25;;;20.39;55.32
37238;BME280;23129;49.662;8.448;2022-08-25T03:31:54;100701.13;;;20.36;55.27
37238;BME280;23129;49.662;8.448;2022-08-25T03:34:26;100709.31;;;20.33;55.30
37238;BME280;23129;49.662;8.448;2022-08-25T03:36:56;100706.97;;;20.28;55.47
37238;BME280;23129;49.662;8.448;2022-08-25T03:39:25;100707.03;;;20.27;55.61
37238;BME280;23129;49.662;8.448;2022-08-25T03:41:55;100706.28;;;20.25;55.75
37238;BME280;23129;49.662;8.448;2022-08-25T03:44:23;100708.19;;;20.23;55.80
37238;BME280;23129;49.662;8.448;2022-08-25T03:46:53;100704.78;;;20.21;56.00
37238;BME280;23129;49.662;8.448;2022-08-25T03:49:23;100701.25;;;20.20;55.94
37238;BME280;23129;49.662;8.448;2022-08-25T03:51:52;100704.97;;;20.18;56.38
37238;BME280;23129;49.662;8.448;2022-08-25T03:54:24;100693.53;;;20.16;56.11
37238;BME280;23129;49.662;8.448;2022-08-25T03:56:53;100689.25;;;20.13;56.44
37238;BME280;23129;49.662;8.448;2022-08-25T03:59:22;100684.91;;;20.12;56.38
37238;BME280;23129;49.662;8.448;2022-08-25T04:01:50;100679.69;;;20.11;56.53
37238;BME280;23129;49.662;8.448;2022-08-25T04:04:23;100682.44;;;20.09;56.73
37238;BME280;23129;49.662;8.448;2022-08-25T04:06:51;100676.34;;;20.07;56.66
37238;BME280;23129;49.662;8.448;2022-08-25T04:09:20;100673.88;;;20.04;57.07
37238;BME280;23129;49.662;8.448;2022-08-25T04:11:49;100682.94;;;20.01;57.01
37238;BME280;23129;49.662;8.448;2022-08-25T04:14:20;100688.47;;;19.98;57.36
37238;BME280;23129;49.662;8.448;2022-08-25T04:16:50;100689.59;;;19.94;57.28
37238;BME280;23129;49.662;8.448;2022-08-25T04:19:19;100688.81;;;19.92;57.25
37238;BME280;23129;49.662;8.448;2022-08-25T04:21:49;100683.69;;;19.89;57.28
37238;BME280;23129;49.662;8.448;2022-08-25T04:24:23;100690.94;;;19.87;57.47
37238;BME280;23129;49.662;8.448;2022-08-25T04:26:51;100687.50;;;19.85;57.59
37238;BME280;23129;49.662;8.448;2022-08-25T04:29:22;100684.84;;;19.85;57.70
37238;BME280;23129;49.662;8.448;2022-08-25T04:31:53;100689.41;;;19.83;57.61
37238;BME280;23129;49.662;8.448;2022-08-25T04:34:24;100690.38;;;19.82;57.75
37238;BME280;23129;49.662;8.448;2022-08-25T04:37:00;100692.25;;;19.80;57.87
37238;BME280;23129;49.662;8.448;2022-08-25T04:39:29;100696.66;;;19.81;57.88
37238;BME280;23129;49.662;8.448;2022-08-25T04:41:58;100705.56;;;19.80;58.04
37238;BME280;23129;49.662;8.448;2022-08-25T04:44:28;100705.75;;;19.77;57.93
37238;BME280;23129;49.662;8.448;2022-08-25T04:46:58;100709.38;;;19.76;58.28
37238;BME280;23129;49.662;8.448;2022-08-25T04:49:27;100709.38;;;19.76;58.19
37238;BME280;23129;49.662;8.448;2022-08-25T04:51:55;100701.50;;;19.74;58.17
37238;BME280;23129;49.662;8.448;2022-08-25T04:54:25;100689.13;;;19.73;58.11
37238;BME280;23129;49.662;8.448;2022-08-25T04:56:54;100700.63;;;19.74;58.38
37238;BME280;23129;49.662;8.448;2022-08-25T04:59:26;100702.34;;;19.75;58.32
37238;BME280;23129;49.662;8.448;2022-08-25T05:01:58;100686.38;;;19.75;58.03
37238;BME280;23129;49.662;8.448;2022-08-25T05:04:29;100680.88;;;19.78;58.13
37238;BME280;23129;49.662;8.448;2022-08-25T05:06:59;100687.88;;;19.79;58.42
37238;BME280;23129;49.662;8.448;2022-08-25T05:09:30;100690.47;;;19.80;58.23
37238;BME280;23129;49.662;8.448;2022-08-25T05:12:00;100691.31;;;19.81;58.33
37238;BME280;23129;49.662;8.448;2022-08-25T05:14:29;100694.72;;;19.83;58.17
37238;BME280;23129;49.662;8.448;2022-08-25T05:16:58;100691.13;;;19.84;58.21
37238;BME280;23129;49.662;8.448;2022-08-25T05:19:27;100697.19;;;19.86;58.34
37238;BME280;23129;49.662;8.448;2022-08-25T05:21:55;100685.63;;;19.87;58.14
37238;BME280;23129;49.662;8.448;2022-08-25T05:24:24;100689.97;;;19.88;58.21
37238;BME280;23129;49.662;8.448;2022-08-25T05:26:55;100692.44;;;19.91;58.56
37238;BME280;23129;49.662;8.448;2022-08-25T05:29:24;100687.13;;;19.91;58.63
37238;BME280;23129;49.662;8.448;2022-08-25T05:31:53;100679.91;;;19.93;58.41
37238;BME280;23129;49.662;8.448;2022-08-25T05:34:22;100670.03;;;19.95;58.83
37238;BME280;23129;49.662;8.448;2022-08-25T05:36:51;100670.75;;;19.97;58.54
37238;BME280;23129;49.662;8.448;2022-08-25T05:39:20;100674.94;;;20.01;58.74
37238;BME280;23129;49.662;8.448;2022-08-25T05:41:50;100678.28;;;20.05;58.87
37238;BME280;23129;49.662;8.448;2022-08-25T05:44:20;100688.81;;;20.06;58.95
37238;BME280;23129;49.662;8.448;2022-08-25T05:46:49;100684.25;;;20.09;58.82
37238;BME280;23129;49.662;8.448;2022-08-25T05:49:17;100689.38;;;20.12;59.03
37238;BME280;23129;49.662;8.448;2022-08-25T05:51:46;100685.56;;;20.16;58.89
37238;BME280;23129;49.662;8.448;2022-08-25T05:54:15;100689.75;;;20.20;59.08
37238;BME280;23129;49.662;8.448;2022-08-25T05:56:43;100687.63;;;20.25;58.98
37238;BME280;23129;49.662;8.448;2022-08-25T05:59:12;100686.50;;;20.29;58.86
37238;BME280;23129;49.662;8.448;2022-08-25T06:01:42;100672.84;;;20.34;58.98
37238;BME280;23129;49.662;8.448;2022-08-25T06:04:28;100664.59;;;20.38;58.96
37238;BME280;23129;49.662;8.448;2022-08-25T06:06:57;100666.94;;;20.43;59.10
37238;BME280;23129;49.662;8.448;2022-08-25T06:09:25;100666.53;;;20.49;58.92
37238;BME280;23129;49.662;8.448;2022-08-25T06:11:54;100673.28;;;20.55;59.04
37238;BME280;23129;49.662;8.448;2022-08-25T06:14:23;100670.22;;;20.61;58.88
37238;BME280;23129;49.662;8.448;2022-08-25T06:16:53;100668.88;;;20.68;59.07
37238;BME280;23129;49.662;8.448;2022-08-25T06:19:22;100664.00;;;20.74;58.84
37238;BME280;23129;49.662;8.448;2022-08-25T06:21:53;100674.16;;;20.82;58.70
37238;BME280;23129;49.662;8.448;2022-08-25T06:24:23;100672.00;;;20.87;59.09
37238;BME280;23129;49.662;8.448;2022-08-25T06:26:52;100669.81;;;20.94;59.01
37238;BME280;23129;49.662;8.448;2022-08-25T06:29:22;100667.56;;;21.01;58.95
37238;BME280;23129;49.662;8.448;2022-08-25T06:31:52;100670.53;;;21.09;58.84
37238;BME280;23129;49.662;8.448;2022-08-25T06:34:21;100667.38;;;21.16;58.83
37238;BME280;23129;49.662;8.448;2022-08-25T06:36:50;100662.47;;;21.23;58.67
37238;BME280;23129;49.662;8.448;2022-08-25T06:39:21;100656.47;;;21.32;58.63
37238;BME280;23129;49.662;8.448;2022-08-25T06:41:51;100654.19;;;21.40;58.50
37238;BME280;23129;49.662;8.448;2022-08-25T06:44:21;100655.34;;;21.49;58.66
37238;BME280;23129;49.662;8.448;2022-08-25T06:46:50;100663.03;;;21.54;58.48
37238;BME280;23129;49.662;8.448;2022-08-25T06:49:20;100653.50;;;21.62;58.50
37238;BME280;23129;49.662;8.448;2022-08-25T06:51:48;100660.88;;;21.72;58.33
37238;BME280;23129;49.662;8.448;2022-08-25T06:54:17;100658.41;;;21.81;58.41
37238;BME280;23129;49.662;8.448;2022-08-25T06:56:45;100657.53;;;21.94;57.97
37238;BME280;23129;49.662;8.448;2022-08-25T06:59:16;100653.97;;;22.06;58.09
37238;BME280;23129;49.662;8.448;2022-08-25T07:01:45;100660.91;;;22.21;58.12
37238;BME280;23129;49.662;8.448;2022-08-25T07:04:16;100654.81;;;22.43;57.98
37238;BME280;23129;49.662;8.448;2022-08-25T07:06:46;100654.63;;;22.82;57.86
37238;BME280;23129;49.662;8.448;2022-08-25T07:09:15;100648.84;;;23.45;56.95
37238;BME280;23129;49.662;8.448;2022-08-25T07:11:44;100650.13;;;24.19;55.58
37238;BME280;23129;49.662;8.448;2022-08-25T07:14:16;100655.47;;;24.94;54.71
37238;BME280;23129;49.662;8.448;2022-08-25T07:16:45;100641.75;;;25.60;53.60
37238;BME280;23129;49.662;8.448;2022-08-25T07:19:17;100638.72;;;26.25;52.73
37238;BME280;23129;49.662;8.448;2022-08-25T07:21:51;100635.94;;;26.84;51.79
37238;BME280;23129;49.662;8.448;2022-08-25T07:24:21;100632.03;;;27.36;50.88
37238;BME280;23129;49.662;8.448;2022-08-25T07:26:50;100628.31;;;27.74;50.37
37238;BME280;23129;49.662;8.448;2022-08-25T07:29:22;100631.66;;;28.13;49.91
37238;BME280;23129;49.662;8.448;2022-08-25T07:31:59;100632.44;;;28.51;49.09
37238;BME280;23129;49.662;8.448;2022-08-25T07:34:28;100619.13;;;28.76;48.44
37238;BME280;23129;49.662;8.448;2022-08-25T07:37:21;100625.03;;;28.97;48.29
37238;BME280;23129;49.662;8.448;2022-08-25T07:40:13;100618.41;;;29.09;48.16
37238;BME280;23129;49.662;8.448;2022-08-25T07:42:44;100613.44;;;29.23;47.53
37238;BME280;23129;49.662;8.448;2022-08-25T07:45:13;100619.94;;;29.38;47.41
37238;BME280;23129;49.662;8.448;2022-08-25T07:47:47;100620.91;;;29.63;46.80
37238;BME280;23129;49.662;8.448;2022-08-25T07:50:19;100621.38;;;29.93;46.08
37238;BME280;23129;49.662;8.448;2022-08-25T07:52:49;100624.66;;;30.21;45.90
37238;BME280;23129;49.662;8.448;2022-08-25T07:55:22;100615.25;;;30.50;45.30
37238;BME280;23129;49.662;8.448;2022-08-25T07:57:52;100610.66;;;30.75;44.45
37238;BME280;23129;49.662;8.448;2022-08-25T08:00:24;100615.25;;;31.07;43.82
37238;BME280;23129;49.662;8.448;2022-08-25T08:02:56;100613.16;;;31.42;42.98
37238;BME280;23129;49.662;8.448;2022-08-25T08:05:26;100619.78;;;31.78;42.63
37238;BME280;23129;49.662;8.448;2022-08-25T08:07:56;100620.38;;;32.05;41.70
37238;BME280;23129;49.662;8.448;2022-08-25T08:10:26;100623.94;;;32.28;41.31
37238;BME280;23129;49.662;8.448;2022-08-25T08:13:15;100617.63;;;32.59;41.09
37238;BME280;23129;49.662;8.448;2022-08-25T08:15:45;100624.00;;;32.89;40.08
37238;BME280;23129;49.662;8.448;2022-08-25T08:18:15;100613.09;;;33.12;40.03
37238;BME280;23129;49.662;8.448;2022-08-25T08:20:46;100624.38;;;33.39;39.51
37238;BME280;23129;49.662;8.448;2022-08-25T08:23:16;100619.13;;;33.52;39.19
37238;BME280;23129;49.662;8.448;2022-08-25T08:25:44;100628.41;;;33.73;38.72
37238;BME280;23129;49.662;8.448;2022-08-25T08:28:14;100616.44;;;34.03;38.15
37238;BME280;23129;49.662;8.448;2022-08-25T08:30:42;100612.06;;;34.24;37.71
37238;BME280;23129;49.662;8.448;2022-08-25T08:33:21;100609.22;;;34.32;37.47
37238;BME280;23129;49.662;8.448;2022-08-25T08:35:58;100611.66;;;34.48;37.43
37238;BME280;23129;49.662;8.448;2022-08-25T08:38:33;100611.06;;;34.68;36.65
37238;BME280;23129;49.662;8.448;2022-08-25T08:41:14;100620.78;;;34.77;36.47
37238;BME280;23129;49.662;8.448;2022-08-25T08:44:26;100612.63;;;35.05;35.74
37238;BME280;23129;49.662;8.448;2022-08-25T08:47:05;100620.13;;;35.31;35.37
37238;BME280;23129;49.662;8.448;2022-08-25T08:49:47;100611.97;;;35.66;34.82
37238;BME280;23129;49.662;8.448;2022-08-25T08:52:21;100606.63;;;35.99;34.34
37238;BME280;23129;49.662;8.448;2022-08-25T08:55:02;100604.81;;;36.26;33.97
37238;BME280;23129;49.662;8.448;2022-08-25T08:57:39;100598.75;;;36.44;33.30
37238;BME280;23129;49.662;8.448;2022-08-25T09:00:11;100597.72;;;36.52;33.04
37238;BME280;23129;49.662;8.448;2022-08-25T09:02:49;100591.19;;;36.66;33.02
37238;BME280;23129;49.662;8.448;2022-08-25T09:05:23;100599.59;;;36.78;32.92
37238;BME280;23129;49.662;8.448;2022-08-25T09:07:58;100589.06;;;36.88;32.22
37238;BME280;23129;49.662;8.448;2022-08-25T09:10:48;100589.50;;;36.98;32.26
37238;BME280;23129;49.662;8.448;2022-08-25T09:13:39;100593.28;;;37.17;31.40
37238;BME280;23129;49.662;8.448;2022-08-25T09:16:18;100592.81;;;37.34;31.74
37238;BME280;23129;49.662;8.448;2022-08-25T09:19:23;100584.72;;;37.65;31.33
37238;BME280;23129;49.662;8.448;2022-08-25T09:22:04;100590.06;;;37.92;30.39
37238;BME280;23129;49.662;8.448;2022-08-25T09:25:05;100590.00;;;38.05;30.60
37238;BME280;23129;49.662;8.448;2022-08-25T09:27:45;100583.28;;;38.01;30.11
37238;BME280;23129;49.662;8.448;2022-08-25T09:30:19;100579.47;;;38.02;30.26
37238;BME280;23129;49.662;8.448;2022-08-25T09:32:53;100575.59;;;38.17;29.90
37238;BME280;23129;49.662;8.448;2022-08-25T09:35:34;100576.28;;;38.37;29.50
37238;BME280;23129;49.662;8.448;2022-08-25T09:38:08;100571.03;;;38.42;29.28
37238;BME280;23129;49.662;8.448;2022-08-25T09:40:40;100563.03;;;38.66;28.72
37238;BME280;23129;49.662;8.448;2022-08-25T09:43:20;100547.03;;;38.81;28.85
37238;BME280;23129;49.662;8.448;2022-08-25T09:45:58;100551.97;;;38.97;28.48
37238;BME280;23129;49.662;8.448;2022-08-25T09:48:31;100547.16;;;38.93;28.08
37238;BME280;23129;49.662;8.448;2022-08-25T09:51:18;100556.47;;;38.35;28.55
37238;BME280;23129;49.662;8.448;2022-08-25T09:53:53;100547.66;;;37.63;29.19
37238;BME280;23129;49.662;8.448;2022-08-25T09:56:24;100546.88;;;37.49;28.49
37238;BME280;23129;49.662;8.448;2022-08-25T09:58:55;100543.53;;;37.85;28.59
37238;BME280;23129;49.662;8.448;2022-08-25T10:01:48;100532.44;;;38.37;27.79
37238;BME280;23129;49.662;8.448;2022-08-25T10:04:25;100525.09;;;38.63;27.51
37238;BME280;23129;49.662;8.448;2022-08-25T10:06:54;100522.56;;;38.61;26.83
37238;BME280;23129;49.662;8.448;2022-08-25T10:09:29;100532.59;;;38.17;27.60
37238;BME280;23129;49.662;8.448;2022-08-25T10:12:01;100524.16;;;38.19;27.66
37238;BME280;23129;49.662;8.448;2022-08-25T10:14:36;100514.69;;;38.46;27.25
37238;BME280;23129;49.662;8.448;2022-08-25T10:17:15;100514.31;;;38.86;26.77
37238;BME280;23129;49.662;8.448;2022-08-25T10:20:11;100514.31;;;39.23;26.35
37238;BME280;23129;49.662;8.448;2022-08-25T10:22:43;100509.84;;;39.10;26.60
37238;BME280;23129;49.662;8.448;2022-08-25T10:25:17;100505.41;;;38.47;27.04
37238;BME280;23129;49.662;8.448;2022-08-25T10:27:59;100495.84;;;38.25;26.93
37238;BME280;23129;49.662;8.448;2022-08-25T10:30:41;100496.56;;;38.45;26.78
37238;BME280;23129;49.662;8.448;2022-08-25T10:33:26;100504.19;;;38.36;27.12
37238;BME280;23129;49.662;8.448;2022-08-25T10:36:07;100505.41;;;37.84;27.33
37238;BME280;23129;49.662;8.448;2022-08-25T10:38:52;100495.63;;;37.11;28.21
37238;BME280;23129;49.662;8.448;2022-08-25T10:41:40;100490.91;;;36.33;28.44
37238;BME280;23129;49.662;8.448;2022-08-25T10:44:20;100498.88;;;35.40;29.71
37238;BME280;23129;49.662;8.448;2022-08-25T10:47:45;100492.00;;;34.75;30.35
37238;BME280;23129;49.662;8.448;2022-08-25T10:50:26;100489.50;;;34.52;30.54
37238;BME280;23129;49.662;8.448;2022-08-25T10:53:39;100490.59;;;34.29;30.65
37238;BME280;23129;49.662;8.448;2022-08-25T10:56:18;100479.28;;;34.26;30.57
37238;BME280;23129;49.662;8.448;2022-08-25T10:59:21;100485.13;;;34.23;30.27
37238;BME280;23129;49.662;8.448;2022-08-25T11:05:25;100473.91;;;35.02;29.53
37238;BME280;23129;49.662;8.448;2022-08-25T11:08:04;100459.91;;;35.05;29.67
37238;BME280;23129;49.662;8.448;2022-08-25T11:10:41;100461.69;;;35.26;29.20
37238;BME280;23129;49.662;8.448;2022-08-25T11:13:25;100461.47;;;35.28;29.23
37238;BME280;23129;49.662;8.448;2022-08-25T11:16:02;100459.03;;;35.53;28.96
37238;BME280;23129;49.662;8.448;2022-08-25T11:18:56;100453.06;;;36.04;28.51
37238;BME280;23129;49.662;8.448;2022-08-25T11:21:41;100447.38;;;36.59;27.99
37238;BME280;23129;49.662;8.448;2022-08-25T11:24:48;100455.31;;;36.73;27.94
37238;BME280;23129;49.662;8.448;2022-08-25T11:27:23;100444.81;;;36.84;27.59
37238;BME280;23129;49.662;8.448;2022-08-25T11:30:03;100449.09;;;37.18;27.25
37238;BME280;23129;49.662;8.448;2022-08-25T11:32:33;100435.47;;;37.11;26.93
37238;BME280;23129;49.662;8.448;2022-08-25T11:35:07;100438.75;;;36.68;27.84
37238;BME280;23129;49.662;8.448;2022-08-25T11:37:52;100439.59;;;36.49;27.82
37238;BME280;23129;49.662;8.448;2022-08-25T11:40:46;100438.59;;;36.23;27.75
37238;BME280;23129;49.662;8.448;2022-08-25T11:43:51;100441.47;;;35.88;28.54
37238;BME280;23129;49.662;8.448;2022-08-25T11:46:35;100444.88;;;36.04;28.29
37238;BME280;23129;49.662;8.448;2022-08-25T11:49:39;100437.31;;;36.06;28.45
37238;BME280;23129;49.662;8.448;2022-08-25T11:52:43;100427.22;;;36.26;28.21
37238;BME280;23129;49.662;8.448;2022-08-25T11:55:20;100432.16;;;36.83;27.56
37238;BME280;23129;49.662;8.448;2022-08-25T12:00:43;100419.13;;;36.85;27.51
37238;BME280;23129;49.662;8.448;2022-08-25T12:03:50;100418.59;;;36.56;27.94
37238;BME280;23129;49.662;8.448;2022-08-25T12:06:25;100418.63;;;36.29;27.95
37238;BME280;23129;49.662;8.448;2022-08-25T12:09:17;100431.81;;;35.93;28.31
37238;BME280;23129;49.662;8.448;2022-08-25T12:11:52;100415.03;;;35.82;28.48
37238;BME280;23129;49.662;8.448;2022-08-25T12:14:45;100419.25;;;36.18;28.05
37238;BME280;23129;49.662;8.448;2022-08-25T12:17:22;100411.22;;;36.37;28.06
37238;BME280;23129;49.662;8.448;2022-08-25T12:19:57;100414.53;;;36.78;27.63
37238;BME280;23129;49.662;8.448;2022-08-25T12:25:50;100413.69;;;36.78;27.28
37238;BME280;23129;49.662;8.448;2022-08-25T12:28:52;100400.78;;;36.20;28.45
37238;BME280;23129;49.662;8.448;2022-08-25T12:31:57;100403.25;;;35.62;28.43
37238;BME280;23129;49.662;8.448;2022-08-25T12:34:50;100406.50;;;35.31;28.82
37238;BME280;23129;49.662;8.448;2022-08-25T12:37:21;100406.03;;;35.14;28.93
37238;BME280;23129;49.662;8.448;2022-08-25T12:39:58;100402.06;;;35.10;28.86
37238;BME280;23129;49.662;8.448;2022-08-25T12:42:33;100403.44;;;34.99;29.30
37238;BME280;23129;49.662;8.448;2022-08-25T12:51:26;100393.88;;;36.89;27.66
37238;BME280;23129;49.662;8.448;2022-08-25T12:54:11;100389.06;;;37.93;26.54
37238;BME280;23129;49.662;8.448;2022-08-25T12:56:54;100394.69;;;38.23;26.02
37238;BME280;23129;49.662;8.448;2022-08-25T12:59:35;100386.38;;;38.11;26.28
37238;BME280;23129;49.662;8.448;2022-08-25T13:02:26;100387.19;;;37.87;26.62
37238;BME280;23129;49.662;8.448;2022-08-25T13:05:16;100379.25;;;37.54;26.69
37238;BME280;23129;49.662;8.448;2022-08-25T13:08:30;100385.09;;;37.57;26.91
37238;BME280;23129;49.662;8.448;2022-08-25T13:11:16;100373.19;;;38.45;25.90
37238;BME280;23129;49.662;8.448;2022-08-25T13:13:51;100378.28;;;39.27;24.97
37238;BME280;23129;49.662;8.448;2022-08-25T13:16:27;100373.34;;;40.13;24.13
37238;BME280;23129;49.662;8.448;2022-08-25T13:18:58;100362.66;;;40.75;23.49
37238;BME280;23129;49.662;8.448;2022-08-25T13:21:36;100366.78;;;41.18;23.16
37238;BME280;23129;49.662;8.448;2022-08-25T13:24:10;100361.72;;;41.56;23.04
37238;BME280;23129;49.662;8.448;2022-08-25T13:26:42;100350.00;;;41.99;22.30
37238;BME280;23129;49.662;8.448;2022-08-25T13:29:19;100349.72;;;42.34;22.16
37238;BME280;23129;49.662;8.448;2022-08-25T13:31:56;100345.91;;;42.62;22.25
37238;BME280;23129;49.662;8.448;2022-08-25T13:34:28;100342.19;;;42.96;21.37
37238;BME280;23129;49.662;8.448;2022-08-25T13:37:05;100334.06;;;43.11;21.49
37238;BME280;23129;49.662;8.448;2022-08-25T13:39:49;100329.09;;;43.35;21.08
37238;BME280;23129;49.662;8.448;2022-08-25T13:42:24;100334.75;;;42.96;21.19
37238;BME280;23129;49.662;8.448;2022-08-25T13:44:55;100335.53;;;42.92;21.62